createdAt,value
2024-01-24T00:00:09.751Z,6.24
2024-01-24T00:02:42.563Z,6.27
2024-01-24T00:05:11.331Z,6.29
2024-01-24T00:07:40.149Z,6.35
2024-01-24T00:10:10.637Z,6.38
2024-01-24T00:12:39.495Z,6.47
2024-01-24T00:15:09.022Z,6.44
2024-01-24T00:17:37.668Z,6.46
2024-01-24T00:20:10.311Z,6.50
2024-01-24T00:22:39.063Z,6.51
2024-01-24T00:25:08.213Z,6.55
2024-01-24T00:27:37.014Z,6.53
2024-01-24T00:30:07.322Z,6.60
2024-01-24T00:32:35.926Z,6.66
2024-01-24T00:35:05.081Z,6.68
2024-01-24T00:37:35.146Z,6.67
2024-01-24T00:40:04.379Z,6.73
2024-01-24T00:42:33.055Z,6.71
2024-01-24T00:45:00.864Z,6.77
2024-01-24T00:47:29.865Z,6.74
2024-01-24T00:49:58.622Z,6.76
2024-01-24T00:52:27.201Z,6.79
2024-01-24T00:54:57.227Z,6.86
2024-01-24T00:57:25.960Z,6.88
2024-01-24T00:59:54.658Z,6.95
2024-01-24T01:02:23.356Z,6.99
2024-01-24T01:04:52.120Z,7.00
2024-01-24T01:07:20.835Z,7.02
2024-01-24T01:09:49.579Z,7.03
2024-01-24T01:12:20.179Z,7.00
2024-01-24T01:14:49.495Z,7.04
2024-01-24T01:17:18.088Z,7.07
2024-01-24T01:19:46.706Z,7.06
2024-01-24T01:22:15.618Z,7.09
2024-01-24T01:24:44.544Z,7.06
2024-01-24T01:27:13.414Z,7.12
2024-01-24T01:29:43.445Z,7.16
2024-01-24T01:32:12.090Z,7.08
2024-01-24T01:34:40.892Z,7.06
2024-01-24T01:37:09.660Z,7.17
2024-01-24T01:39:38.606Z,7.11
2024-01-24T01:42:07.373Z,7.13
2024-01-24T01:44:48.313Z,7.15
2024-01-24T01:47:18.426Z,7.17
2024-01-24T01:49:47.619Z,7.13
2024-01-24T01:52:17.803Z,7.14
2024-01-24T01:54:47.850Z,7.16
2024-01-24T01:57:16.847Z,7.26
2024-01-24T01:59:46.567Z,7.26
2024-01-24T02:02:17.639Z,7.23
2024-01-24T02:04:46.787Z,7.28
2024-01-24T02:09:45.699Z,7.41
2024-01-24T02:12:14.445Z,7.22
2024-01-24T02:14:43.314Z,7.46
2024-01-24T02:17:12.089Z,7.52
2024-01-24T02:19:43.276Z,7.52
2024-01-24T02:22:12.018Z,7.59
2024-01-24T02:24:41.986Z,7.64
2024-01-24T02:27:11.243Z,7.68
2024-01-24T02:29:39.964Z,7.78
2024-01-24T02:32:08.938Z,7.75
2024-01-24T02:34:37.694Z,7.88
2024-01-24T02:37:06.502Z,7.42
2024-01-24T02:39:35.190Z,7.96
2024-01-24T02:42:06.109Z,8.25
2024-01-24T02:44:34.862Z,8.40
2024-01-24T02:47:03.637Z,8.45
2024-01-24T02:49:32.885Z,8.55
2024-01-24T02:52:03.185Z,8.62
2024-01-24T02:54:32.153Z,8.75
2024-01-24T02:57:00.876Z,8.81
2024-01-24T02:59:31.186Z,8.85
2024-01-24T03:01:59.727Z,8.80
2024-01-24T03:04:28.494Z,8.98
2024-01-24T03:06:57.363Z,9.05
2024-01-24T03:09:26.124Z,9.09
2024-01-24T03:11:54.800Z,9.18
2024-01-24T03:14:23.448Z,9.25
2024-01-24T03:16:53.558Z,8.79
2024-01-24T03:19:22.304Z,9.40
2024-01-24T03:21:51.116Z,9.53
2024-01-24T03:24:19.882Z,9.53
2024-01-24T03:26:48.486Z,9.61
2024-01-24T03:29:17.336Z,9.67
2024-01-24T03:31:46.192Z,9.80
2024-01-24T03:34:16.274Z,9.83
2024-01-24T03:36:45.048Z,9.88
2024-01-24T03:39:13.872Z,9.96
2024-01-24T03:41:42.486Z,10.02
2024-01-24T03:44:11.288Z,10.07
2024-01-24T03:46:40.025Z,10.08
2024-01-24T03:49:08.859Z,10.07
2024-01-24T03:51:38.945Z,10.18
2024-01-24T03:54:07.762Z,10.25
2024-01-24T03:56:36.387Z,10.35
2024-01-24T03:59:05.154Z,10.44
2024-01-24T04:01:33.959Z,10.48
2024-01-24T04:04:02.766Z,10.54
2024-01-24T04:06:31.548Z,10.56
2024-01-24T04:09:01.755Z,10.61
2024-01-24T04:11:30.353Z,10.63
2024-01-24T04:13:59.031Z,10.68
2024-01-24T04:16:27.768Z,10.75
2024-01-24T04:18:56.599Z,10.93
2024-01-24T04:21:25.383Z,11.03
2024-01-24T04:23:54.051Z,11.12
2024-01-24T04:26:24.391Z,11.10
2024-01-24T04:28:53.353Z,11.14
2024-01-24T04:31:22.013Z,11.17
2024-01-24T04:33:50.735Z,11.19
2024-01-24T04:36:19.422Z,11.11
2024-01-24T04:38:48.137Z,11.04
2024-01-24T04:41:16.764Z,11.07
2024-01-24T04:43:46.777Z,11.14
2024-01-24T04:46:16.138Z,10.93
2024-01-24T04:48:46.290Z,11.04
2024-01-24T04:51:15.138Z,10.98
2024-01-24T04:53:43.751Z,10.69
2024-01-24T04:56:12.846Z,10.90
2024-01-24T04:58:42.890Z,10.88
2024-01-24T05:01:13.670Z,10.81
2024-01-24T05:03:42.538Z,10.73
2024-01-24T05:06:11.912Z,10.55
2024-01-24T05:08:41.362Z,10.35
2024-01-24T05:11:10.136Z,10.12
2024-01-24T05:13:38.981Z,9.98
2024-01-24T05:16:08.086Z,9.81
2024-01-24T05:18:38.228Z,9.63
2024-01-24T05:21:06.970Z,10.10
2024-01-24T05:23:35.675Z,10.07
2024-01-24T05:26:04.602Z,9.55
2024-01-24T05:28:33.249Z,10.09
2024-01-24T05:31:01.962Z,10.18
2024-01-24T05:33:30.827Z,10.17
2024-01-24T05:36:00.955Z,10.19
2024-01-24T05:38:30.968Z,10.23
2024-01-24T05:40:59.606Z,10.30
2024-01-24T05:43:28.332Z,10.29
2024-01-24T05:45:57.207Z,10.36
2024-01-24T05:48:25.929Z,10.38
2024-01-24T05:50:54.732Z,10.36
2024-01-24T05:53:25.345Z,10.42
2024-01-24T05:55:54.024Z,10.43
2024-01-24T05:58:22.728Z,10.37
2024-01-24T06:00:54.730Z,10.36
2024-01-24T06:03:23.542Z,10.48
2024-01-24T06:05:52.943Z,10.49
2024-01-24T06:08:21.733Z,10.55
2024-01-24T06:10:52.266Z,9.88
2024-01-24T06:13:20.897Z,10.40
2024-01-24T06:15:49.738Z,10.33
2024-01-24T06:18:18.686Z,10.45
2024-01-24T06:20:48.355Z,10.51
2024-01-24T06:23:17.301Z,10.64
2024-01-24T06:25:46.072Z,10.72
2024-01-24T06:28:16.157Z,10.78
2024-01-24T06:30:44.900Z,10.77
2024-01-24T06:33:16.013Z,10.93
2024-01-24T06:35:44.730Z,10.85
2024-01-24T06:38:14.147Z,10.86
2024-01-24T06:40:42.975Z,10.84
2024-01-24T06:43:13.660Z,10.93
2024-01-24T06:45:43.921Z,10.92
2024-01-24T06:48:12.590Z,10.85
2024-01-24T06:50:41.463Z,10.83
2024-01-24T06:53:11.925Z,10.77
2024-01-24T06:55:40.668Z,10.80
2024-01-24T06:58:10.099Z,10.79
2024-01-24T07:00:38.977Z,10.78
2024-01-24T07:03:09.151Z,10.78
2024-01-24T07:05:38.042Z,10.80
2024-01-24T07:08:07.549Z,10.69
2024-01-24T07:10:36.296Z,10.10
2024-01-24T07:13:06.201Z,10.59
2024-01-24T07:15:34.941Z,10.49
2024-01-24T07:18:04.713Z,10.39
2024-01-24T07:20:34.849Z,10.35
2024-01-24T07:23:03.830Z,10.35
2024-01-24T07:25:32.538Z,10.33
2024-01-24T07:28:01.159Z,10.20
2024-01-24T07:30:29.961Z,10.04
2024-01-24T07:32:58.690Z,9.98
2024-01-24T07:35:27.313Z,10.14
2024-01-24T07:37:57.476Z,9.62
2024-01-24T07:40:27.048Z,10.15
2024-01-24T07:42:56.472Z,9.86
2024-01-24T07:45:26.649Z,10.36
2024-01-24T07:47:55.448Z,10.39
2024-01-24T07:50:24.587Z,10.50
2024-01-24T07:52:53.430Z,10.52
2024-01-24T07:55:28.687Z,10.58
2024-01-24T07:58:06.265Z,10.64
2024-01-24T08:00:35.839Z,10.60
2024-01-24T08:03:05.633Z,10.65
2024-01-24T08:05:34.348Z,10.74
2024-01-24T08:08:05.305Z,10.82
2024-01-24T08:10:35.871Z,10.14
2024-01-24T08:13:04.773Z,10.85
2024-01-24T08:15:33.807Z,10.90
2024-01-24T08:18:02.832Z,11.00
2024-01-24T08:20:31.535Z,10.97
2024-01-24T08:23:00.385Z,11.00
2024-01-24T08:25:29.048Z,11.00
2024-01-24T08:27:59.296Z,11.08
2024-01-24T08:30:28.089Z,11.14
2024-01-24T08:32:56.986Z,11.11
2024-01-24T08:35:25.773Z,11.21
2024-01-24T08:37:54.526Z,11.24
2024-01-24T08:40:23.291Z,11.16
2024-01-24T08:42:52.244Z,11.18
2024-01-24T08:45:22.693Z,11.17
2024-01-24T08:47:52.485Z,11.33
2024-01-24T08:50:23.446Z,11.43
2024-01-24T08:52:52.878Z,11.36
2024-01-24T08:55:22.167Z,11.29
2024-01-24T08:57:51.291Z,11.14
2024-01-24T09:00:22.121Z,11.04
2024-01-24T09:02:51.123Z,11.06
2024-01-24T09:05:22.281Z,11.08
2024-01-24T09:07:51.098Z,10.93
2024-01-24T09:10:19.988Z,10.82
2024-01-24T09:12:49.611Z,10.80
2024-01-24T09:15:18.615Z,10.67
2024-01-24T09:17:49.340Z,10.66
2024-01-24T09:20:19.443Z,10.69
2024-01-24T09:22:48.560Z,10.73
2024-01-24T09:25:17.911Z,10.70
2024-01-24T09:27:47.283Z,10.80
2024-01-24T09:30:16.651Z,10.82
2024-01-24T09:32:45.576Z,10.91
2024-01-24T09:35:16.069Z,11.08
2024-01-24T09:37:45.282Z,11.09
2024-01-24T09:40:17.516Z,11.00
2024-01-24T09:42:47.221Z,11.12
2024-01-24T09:45:19.229Z,10.96
2024-01-24T09:47:49.868Z,10.84
2024-01-24T09:50:22.889Z,10.90
2024-01-24T09:52:55.500Z,11.00
2024-01-24T09:55:25.289Z,10.95
2024-01-24T09:57:54.173Z,10.93
2024-01-24T10:00:23.125Z,10.86
2024-01-24T10:02:52.608Z,10.95
2024-01-24T10:05:22.132Z,10.91
2024-01-24T10:07:52.057Z,10.91
2024-01-24T10:10:20.740Z,10.98
2024-01-24T10:12:49.741Z,11.08
2024-01-24T10:15:19.405Z,11.22
2024-01-24T10:17:48.553Z,11.17
2024-01-24T10:20:17.396Z,11.28
2024-01-24T10:22:47.823Z,11.25
2024-01-24T10:25:18.888Z,11.17
2024-01-24T10:27:47.833Z,11.07
2024-01-24T10:30:17.331Z,11.02
2024-01-24T10:32:48.492Z,11.25
2024-01-24T10:35:18.182Z,11.29
2024-01-24T10:37:49.000Z,11.25
2024-01-24T10:40:18.270Z,11.19
2024-01-24T10:42:49.563Z,11.35
2024-01-24T10:45:21.853Z,11.39
2024-01-24T10:47:52.817Z,11.44
2024-01-24T10:50:23.009Z,11.49
2024-01-24T10:52:55.074Z,11.43
2024-01-24T10:55:24.715Z,11.21
2024-01-24T10:57:55.698Z,11.20
2024-01-24T11:00:26.896Z,11.15
2024-01-24T11:02:55.875Z,11.18
2024-01-24T11:05:31.657Z,11.25
2024-01-24T11:08:06.215Z,10.95
2024-01-24T11:10:38.727Z,11.04
2024-01-24T11:13:08.283Z,10.95
2024-01-24T11:15:37.992Z,10.87
2024-01-24T11:18:28.206Z,10.90
2024-01-24T11:21:00.334Z,11.04
2024-01-24T11:23:39.991Z,11.25
2024-01-24T11:26:11.137Z,11.50
2024-01-24T11:28:40.648Z,11.56
2024-01-24T11:31:10.217Z,11.71
2024-01-24T11:33:47.615Z,11.64
2024-01-24T11:36:16.584Z,11.73
2024-01-24T11:38:47.163Z,11.47
2024-01-24T11:41:27.841Z,11.27
2024-01-24T11:43:58.679Z,11.09
2024-01-24T11:46:28.698Z,11.01
2024-01-24T11:49:08.118Z,11.24
2024-01-24T11:51:37.541Z,11.04
2024-01-24T11:54:07.813Z,10.93
2024-01-24T11:56:37.592Z,10.83
2024-01-24T11:59:06.292Z,10.83
2024-01-24T12:01:35.305Z,10.77
2024-01-24T12:04:05.455Z,10.49
2024-01-24T12:06:36.937Z,10.29
2024-01-24T12:09:09.426Z,10.39
2024-01-24T12:11:38.135Z,10.18
2024-01-24T12:14:06.946Z,10.17
2024-01-24T12:16:39.599Z,10.26
2024-01-24T12:19:10.377Z,10.26
2024-01-24T12:21:39.965Z,10.32
2024-01-24T12:24:10.790Z,10.64
2024-01-24T12:26:42.006Z,10.65
2024-01-24T12:29:11.313Z,10.40
2024-01-24T12:31:42.555Z,10.38
2024-01-24T12:34:11.638Z,10.26
2024-01-24T12:36:44.426Z,10.18
2024-01-24T12:39:14.606Z,10.17
2024-01-24T12:41:43.619Z,10.11
2024-01-24T12:44:12.524Z,10.09
2024-01-24T12:46:41.688Z,10.07
2024-01-24T12:49:10.671Z,9.90
2024-01-24T12:51:41.508Z,9.97
2024-01-24T12:54:10.399Z,9.92
2024-01-24T12:56:40.566Z,10.04
2024-01-24T12:59:09.715Z,10.04
2024-01-24T13:01:38.595Z,9.43
2024-01-24T13:04:07.590Z,10.07
2024-01-24T13:06:37.878Z,10.07
2024-01-24T13:09:07.313Z,10.03
2024-01-24T13:11:36.126Z,9.98
2024-01-24T13:14:06.227Z,9.92
2024-01-24T13:16:36.028Z,9.87
2024-01-24T13:19:05.214Z,9.94
2024-01-24T13:21:34.046Z,10.07
2024-01-24T13:24:04.682Z,9.93
2024-01-24T13:26:33.518Z,9.87
2024-01-24T13:29:02.628Z,9.75
2024-01-24T13:31:34.095Z,9.87
2024-01-24T13:34:03.245Z,9.87
2024-01-24T13:36:33.006Z,9.84
2024-01-24T13:39:01.973Z,9.74
2024-01-24T13:41:30.783Z,9.74
2024-01-24T13:43:59.685Z,9.81
2024-01-24T13:46:28.421Z,9.64
2024-01-24T13:48:59.735Z,9.62
2024-01-24T13:51:38.676Z,8.92
2024-01-24T13:54:12.012Z,9.50
2024-01-24T13:56:40.708Z,9.46
2024-01-24T13:59:10.623Z,9.54
2024-01-24T14:01:45.236Z,9.47
2024-01-24T14:04:16.648Z,9.59
2024-01-24T14:06:46.392Z,9.69
2024-01-24T14:09:15.819Z,9.59
2024-01-24T14:11:45.370Z,9.07
2024-01-24T14:14:14.127Z,9.53
2024-01-24T14:16:42.742Z,9.52
2024-01-24T14:19:12.283Z,9.53
2024-01-24T14:21:42.693Z,9.53
2024-01-24T14:24:11.491Z,9.54
2024-01-24T14:26:40.284Z,9.46
2024-01-24T14:29:09.435Z,9.59
2024-01-24T14:31:39.203Z,9.46
2024-01-24T14:34:08.183Z,9.46
2024-01-24T14:36:37.827Z,9.42
2024-01-24T14:39:09.027Z,9.33
2024-01-24T14:41:38.246Z,9.22
2024-01-24T14:44:07.044Z,9.13
2024-01-24T14:46:35.769Z,9.08
2024-01-24T14:49:04.730Z,8.55
2024-01-24T14:51:33.445Z,9.03
2024-01-24T14:54:02.255Z,9.01
2024-01-24T14:56:32.483Z,9.08
2024-01-24T14:59:02.410Z,9.09
2024-01-24T15:01:31.289Z,9.00
2024-01-24T15:04:00.221Z,9.00
2024-01-24T15:06:29.198Z,8.96
2024-01-24T15:08:57.961Z,9.00
2024-01-24T15:11:26.694Z,9.00
2024-01-24T15:13:56.674Z,9.02
2024-01-24T15:16:25.921Z,9.01
2024-01-24T15:18:55.554Z,9.05
2024-01-24T15:21:24.310Z,8.97
2024-01-24T15:23:53.751Z,8.94
2024-01-24T15:26:22.473Z,8.91
2024-01-24T15:28:51.296Z,8.94
2024-01-24T15:31:21.422Z,8.28
2024-01-24T15:33:51.152Z,8.88
2024-01-24T15:36:21.019Z,8.78
2024-01-24T15:38:52.095Z,8.84
2024-01-24T15:41:20.986Z,8.85
2024-01-24T15:43:49.756Z,8.78
2024-01-24T15:46:21.862Z,8.86
2024-01-24T15:48:52.071Z,8.88
2024-01-24T15:51:20.945Z,8.83
2024-01-24T15:53:50.101Z,8.81
2024-01-24T15:56:19.861Z,8.82
2024-01-24T15:58:48.579Z,8.29
2024-01-24T16:01:17.450Z,8.86
2024-01-24T16:03:47.830Z,8.84
2024-01-24T16:06:16.582Z,8.84
2024-01-24T16:08:46.323Z,8.84
2024-01-24T16:11:15.115Z,8.93
2024-01-24T16:13:44.466Z,9.02
2024-01-24T16:16:17.312Z,9.02
2024-01-24T16:18:49.450Z,9.03
2024-01-24T16:21:19.528Z,9.09
2024-01-24T16:23:48.391Z,9.07
2024-01-24T16:26:17.183Z,9.11
2024-01-24T16:28:45.917Z,9.21
2024-01-24T16:31:14.750Z,9.22
2024-01-24T16:33:43.622Z,9.28
2024-01-24T16:36:28.437Z,9.35
2024-01-24T16:39:01.985Z,9.35
2024-01-24T16:41:31.880Z,9.36
2024-01-24T16:44:01.811Z,9.30
2024-01-24T16:46:30.913Z,9.34
2024-01-24T16:48:59.759Z,9.37
2024-01-24T16:51:29.890Z,8.80
2024-01-24T16:53:58.775Z,9.35
2024-01-24T16:56:27.412Z,9.27
2024-01-24T16:58:56.080Z,9.19
2024-01-24T17:01:25.045Z,9.12
2024-01-24T17:03:53.865Z,9.07
2024-01-24T17:06:22.672Z,9.04
2024-01-24T17:08:52.700Z,9.13
2024-01-24T17:11:21.390Z,9.17
2024-01-24T17:13:50.102Z,9.31
2024-01-24T17:16:18.715Z,9.33
2024-01-24T17:18:47.566Z,9.40
2024-01-24T17:21:16.495Z,9.06
2024-01-24T17:23:46.598Z,9.12
2024-01-24T17:26:17.278Z,9.11
2024-01-24T17:28:46.588Z,9.16
2024-01-24T17:31:15.676Z,9.18
2024-01-24T17:33:44.646Z,9.09
2024-01-24T17:36:13.331Z,9.04
2024-01-24T17:38:42.053Z,9.04
2024-01-24T17:41:10.803Z,9.06
2024-01-24T17:43:40.804Z,8.51
2024-01-24T17:46:09.626Z,9.15
2024-01-24T17:48:40.389Z,9.15
2024-01-24T17:51:09.516Z,9.13
2024-01-24T17:53:38.205Z,9.16
2024-01-24T17:56:07.911Z,9.11
2024-01-24T17:58:37.125Z,8.58
2024-01-24T18:01:07.789Z,9.12
2024-01-24T18:03:36.840Z,9.20
2024-01-24T18:06:06.540Z,9.09
2024-01-24T18:08:35.224Z,9.07
2024-01-24T18:11:03.965Z,9.10
2024-01-24T18:13:32.653Z,9.04
2024-01-24T18:16:01.566Z,8.99
2024-01-24T18:18:31.959Z,8.97
2024-01-24T18:21:00.892Z,8.99
2024-01-24T18:23:30.030Z,9.00
2024-01-24T18:25:58.706Z,9.03
2024-01-24T18:28:28.797Z,8.97
2024-01-24T18:30:58.331Z,9.04
2024-01-24T18:33:27.319Z,9.11
2024-01-24T18:35:57.798Z,9.13
2024-01-24T18:38:26.541Z,9.19
2024-01-24T18:40:55.193Z,9.05
2024-01-24T18:43:23.906Z,9.14
2024-01-24T18:45:52.928Z,9.12
2024-01-24T18:48:22.109Z,9.19
2024-01-24T18:50:50.850Z,9.07
2024-01-24T18:53:21.241Z,9.07
2024-01-24T18:55:49.926Z,9.01
2024-01-24T18:58:19.126Z,8.91
2024-01-24T19:00:49.172Z,8.79
2024-01-24T19:03:26.301Z,8.75
2024-01-24T19:05:55.428Z,8.80
2024-01-24T19:08:25.606Z,8.81
2024-01-24T19:10:54.724Z,8.87
2024-01-24T19:13:25.205Z,8.93
2024-01-24T19:15:57.574Z,8.99
2024-01-24T19:18:27.870Z,9.05
2024-01-24T19:20:56.815Z,9.11
2024-01-24T19:23:27.807Z,9.13
2024-01-24T19:25:57.107Z,8.96
2024-01-24T19:28:26.052Z,8.93
2024-01-24T19:30:54.920Z,8.82
2024-01-24T19:33:23.591Z,8.93
2024-01-24T19:35:52.296Z,9.04
2024-01-24T19:38:21.141Z,8.93
2024-01-24T19:40:51.548Z,9.00
2024-01-24T19:43:21.780Z,8.99
2024-01-24T19:45:52.307Z,8.97
2024-01-24T19:48:21.831Z,9.06
2024-01-24T19:50:50.873Z,9.04
2024-01-24T19:53:23.784Z,9.08
2024-01-24T19:56:00.345Z,8.94
2024-01-24T19:58:29.069Z,8.91
2024-01-24T20:00:59.561Z,8.81
2024-01-24T20:03:28.375Z,8.82
2024-01-24T20:05:57.055Z,8.34
2024-01-24T20:08:25.741Z,9.03
2024-01-24T20:10:54.402Z,8.32
2024-01-24T20:13:24.528Z,8.92
2024-01-24T20:15:56.440Z,8.79
2024-01-24T20:18:27.454Z,8.73
2024-01-24T20:20:56.443Z,8.71
2024-01-24T20:23:27.259Z,8.46
2024-01-24T20:25:57.168Z,8.51
2024-01-24T20:28:27.146Z,8.68
2024-01-24T20:30:55.830Z,8.53
2024-01-24T20:33:24.831Z,8.46
2024-01-24T20:35:54.440Z,8.22
2024-01-24T20:38:24.410Z,8.30
2024-01-24T20:40:53.002Z,8.28
2024-01-24T20:43:21.701Z,8.12
2024-01-24T20:45:51.886Z,8.11
2024-01-24T20:48:20.626Z,8.37
2024-01-24T20:50:49.345Z,8.46
2024-01-24T20:53:19.308Z,8.52
2024-01-24T20:55:48.071Z,8.68
2024-01-24T20:58:15.755Z,8.73
2024-01-24T21:00:44.693Z,8.66
2024-01-24T21:03:15.252Z,8.72
2024-01-24T21:05:44.786Z,8.69
2024-01-24T21:08:14.048Z,8.68
2024-01-24T21:10:49.092Z,8.82
2024-01-24T21:13:24.932Z,8.75
2024-01-24T21:15:53.675Z,8.80
2024-01-24T21:18:24.145Z,8.88
2024-01-24T21:20:53.170Z,8.75
2024-01-24T21:23:22.055Z,8.65
2024-01-24T21:25:50.837Z,8.69
2024-01-24T21:28:19.484Z,8.76
2024-01-24T21:30:48.191Z,8.52
2024-01-24T21:33:17.073Z,8.73
2024-01-24T21:35:47.480Z,8.71
2024-01-24T21:38:16.327Z,8.78
2024-01-24T21:40:45.029Z,8.72
2024-01-24T21:43:13.857Z,8.77
2024-01-24T21:45:42.789Z,8.73
2024-01-24T21:48:11.504Z,8.74
2024-01-24T21:50:40.649Z,8.74
2024-01-24T21:53:11.261Z,8.80
2024-01-24T21:55:40.285Z,8.71
2024-01-24T21:58:09.428Z,8.52
2024-01-24T22:00:38.671Z,8.66
2024-01-24T22:03:08.063Z,8.66
2024-01-24T22:05:36.757Z,8.73
2024-01-24T22:08:07.881Z,8.68
2024-01-24T22:10:38.058Z,8.54
2024-01-24T22:13:06.827Z,8.36
2024-01-24T22:15:35.573Z,8.35
2024-01-24T22:18:04.788Z,7.78
2024-01-24T22:20:33.525Z,8.35
2024-01-24T22:23:02.212Z,8.40
2024-01-24T22:25:30.948Z,8.29
2024-01-24T22:28:01.070Z,8.30
2024-01-24T22:30:29.919Z,8.22
2024-01-24T22:32:59.402Z,8.32
2024-01-24T22:35:28.259Z,8.23
2024-01-24T22:37:58.361Z,8.20
2024-01-24T22:40:27.302Z,8.34
2024-01-24T22:42:56.005Z,8.43
2024-01-24T22:45:26.325Z,8.27
2024-01-24T22:47:56.146Z,8.26
2024-01-24T22:50:25.234Z,8.30
2024-01-24T22:52:54.014Z,8.29
2024-01-24T22:55:22.756Z,7.64
2024-01-24T22:57:51.897Z,8.43
2024-01-24T23:00:25.018Z,8.46
2024-01-24T23:02:53.720Z,8.47
2024-01-24T23:05:22.403Z,8.51
2024-01-24T23:07:51.092Z,8.47
2024-01-24T23:10:20.061Z,8.54
2024-01-24T23:12:48.923Z,8.60
2024-01-24T23:15:17.690Z,8.50
2024-01-24T23:17:48.079Z,8.47
2024-01-24T23:20:17.070Z,8.53
2024-01-24T23:22:45.915Z,8.55
2024-01-24T23:25:14.890Z,8.46
2024-01-24T23:27:43.793Z,7.89
2024-01-24T23:30:13.286Z,8.48
2024-01-24T23:32:42.770Z,8.58
2024-01-24T23:35:13.111Z,7.94
2024-01-24T23:37:42.093Z,8.63
2024-01-24T23:40:12.313Z,8.60
2024-01-24T23:42:41.171Z,8.48
2024-01-24T23:45:10.809Z,8.54
2024-01-24T23:47:39.631Z,8.61
2024-01-24T23:50:09.820Z,8.58
2024-01-24T23:52:40.057Z,8.62
2024-01-24T23:55:09.899Z,8.66
2024-01-24T23:57:38.695Z,8.68
